Weerawila Airport

Jump to: basic info | weather | frequencies | runways | comments

Related pages: nearby airports | nearby navaids | notams | map

Basic information (top)

Codes: WRZ VCCW
Location: lon 6.254490, lat 81.235199, elev 50 ft / 15 m msl
Status: small_airport
Scheduled airline service: yes
Links: Wikipedia Mobile

Weather (top)

Current conditions for Mattala Rajapaksa International Airport 7nm (13km) SW (rec'd 2014/04/20 20:10Z):

VCRI 202010Z 36002KT 9999 SCT016 27/25 Q1008 NOSIG

Airport forecast for Bandaranaike International Colombo Airport 98nm (181km) NW (rec'd 2014/04/20 18:12Z):

TAF TAF VCBI 201540Z 2018/2124 VRB05KT 9999 SCT016 TX32/2108Z TN25/2100Z 
      BECMG 2104/2105 27008KT PROB40 
      TEMPO 2112/2118 6000 -TSRA/SHRA SCT010 BKN016 FEW020CB 
      BECMG 2113/2114 VRB05KT

Frequencies (top)

Verify before use: may be inaccurate or out of date.

TWR: 118.1 MHz (TWR)

Runways (top)

07/25: 4,000 x 93 ft (1,219 x 28 m) — paved — not lighted

Latest comments (top)

No comments yet for Weerawila Airport

More... (top)

See also NOTAMs and nearby airports and navaids, or visit the Weerawila Airport page at the main OurAirports website..